Time;durP1;ratioP1;P1;durP2;ratioP2;P2;SDS_P1;SDS_P2;PMS_P1;PMS_P2;Temp;Humidity;BMP_temperature;BMP_pressure;BME280_temperature;BME280_humidity;BME280_pressure;Samples;Min_cycle;Max_cycle;Signal;HPM_P1;HPM_P2
2022/01/30 00:01:24;;;;;;;3.75;1.52;;;;;;;7.68;100.00;101478.81;5050712;28;20410;-52
2022/01/30 00:04:28;;;;;;;3.97;0.93;;;;;;;7.60;100.00;101464.28;5050859;28;20484;-52
2022/01/30 00:07:32;;;;;;;16.88;0.50;;;;;;;7.46;100.00;101462.47;5050455;28;20056;-52
2022/01/30 00:10:39;;;;;;;0.28;0.28;;;;;;;7.52;100.00;101477.44;5051025;28;20060;-51
2022/01/30 00:13:42;;;;;;;3.47;0.90;;;;;;;7.57;100.00;101490.84;5050322;28;20052;-53
2022/01/30 00:16:48;;;;;;;0.38;0.38;;;;;;;7.62;100.00;101490.34;5050919;28;20557;-52
2022/01/30 00:20:05;;;;;;;0.40;0.40;;;;;;;7.65;100.00;101480.44;5050375;28;20052;-52
2022/01/30 00:23:18;;;;;;;3.22;0.75;;;;;;;7.74;100.00;101468.81;5030852;28;20052;-52
2022/01/30 00:26:27;;;;;;;0.57;0.57;;;;;;;7.64;100.00;101468.53;5030492;28;20048;-52
2022/01/30 00:29:31;;;;;;;0.10;0.10;;;;;;;7.57;100.00;101485.28;5030772;28;20061;-52
2022/01/30 00:32:34;;;;;;;10.93;0.85;;;;;;;7.53;100.00;101492.09;5046654;28;20048;-53
2022/01/30 00:35:38;;;;;;;2.05;0.73;;;;;;;7.55;100.00;101492.44;5050541;28;20056;-53
2022/01/30 00:38:41;;;;;;;0.93;0.32;;;;;;;7.60;100.00;101494.78;5050269;28;20052;-52
2022/01/30 00:41:45;;;;;;;0.65;0.65;;;;;;;7.54;100.00;101485.31;5050352;28;20120;-53
2022/01/30 00:44:48;;;;;;;6.13;1.48;;;;;;;7.37;100.00;101487.13;5049810;28;20052;-52
2022/01/30 00:47:52;;;;;;;3.05;1.08;;;;;;;7.21;100.00;101495.19;5050367;28;20405;-53
2022/01/30 00:50:55;;;;;;;0.22;0.22;;;;;;;7.11;100.00;101500.84;5050124;28;20111;-53
2022/01/30 00:53:58;;;;;;;5.88;0.45;;;;;;;7.05;100.00;101503.31;5050121;28;20048;-52
2022/01/30 00:57:02;;;;;;;1.38;0.75;;;;;;;7.00;100.00;101489.09;5049934;28;20052;-52
2022/01/30 01:00:06;;;;;;;1.85;0.68;;;;;;;6.96;100.00;101469.75;5050394;28;20188;-52
2022/01/30 01:03:10;;;;;;;5.10;0.82;;;;;;;6.85;100.00;101449.69;5029926;28;20064;-52
2022/01/30 01:06:13;;;;;;;1.23;0.57;;;;;;;6.80;100.00;101458.44;5018853;28;20040;-53
2022/01/30 01:09:23;;;;;;;2.30;0.73;;;;;;;6.85;100.00;101489.25;5029735;28;20405;-53
2022/01/30 01:12:50;;;;;;;5.35;0.75;;;;;;;6.80;100.00;101503.53;5045515;28;20047;-52
2022/01/30 01:25:42;;;;;;;2.65;0.55;;;;;;;6.56;100.00;101471.31;5033188;28;20509;-52
2022/01/30 01:28:46;;;;;;;7.75;1.05;;;;;;;6.43;100.00;101484.09;5029932;28;20053;-53
2022/01/30 01:31:50;;;;;;;5.70;1.23;;;;;;;6.40;100.00;101489.66;5029428;28;20052;-52
2022/01/30 01:34:53;;;;;;;0.10;0.10;;;;;;;6.35;100.00;101485.34;5029427;28;20064;-53
2022/01/30 01:37:57;;;;;;;0.10;0.10;;;;;;;6.43;100.00;101472.25;5029204;28;20084;-52
2022/01/30 01:41:00;;;;;;;0.40;0.40;;;;;;;6.42;100.00;101470.66;5029741;28;20060;-52
2022/01/30 01:44:17;;;;;;;0.63;0.25;;;;;;;6.28;100.00;101492.91;5029474;28;20402;-53
2022/01/30 01:47:22;;;;;;;3.72;0.60;;;;;;;6.20;100.00;101494.94;5029766;28;20394;-53
2022/01/30 01:50:45;;;;;;;13.25;1.02;;;;;;;6.16;100.00;101490.63;5029235;28;20048;-52
2022/01/30 01:53:56;;;;;;;0.15;0.15;;;;;;;6.10;100.00;101487.50;5029271;28;20048;-52
2022/01/30 01:56:59;;;;;;;0.30;0.20;;;;;;;6.08;100.00;101487.94;5029442;28;20413;-52
2022/01/30 02:00:04;;;;;;;0.40;0.40;;;;;;;6.16;100.00;101491.41;5029565;28;20485;-52
2022/01/30 02:03:09;;;;;;;0.90;0.30;;;;;;;6.22;100.00;101494.53;5029304;28;20056;-52
2022/01/30 02:06:17;;;;;;;1.15;0.73;;;;;;;6.33;100.00;101490.50;5019021;28;20045;-52
2022/01/30 02:09:28;;;;;;;1.95;0.85;;;;;;;6.47;100.00;101495.16;5032949;28;20052;-52
2022/01/30 02:12:41;;;;;;;2.55;0.40;;;;;;;6.49;100.00;101501.06;5049400;28;20056;-52
2022/01/30 02:26:13;;;;;;;14.13;1.42;;;;;;;6.86;100.00;101495.59;4997211;28;20049;-53
2022/01/30 02:29:18;;;;;;;0.10;0.10;;;;;;;6.98;100.00;101488.72;5032121;28;20072;-53
2022/01/30 02:32:22;;;;;;;0.55;0.55;;;;;;;7.09;100.00;101487.44;5047095;28;20052;-53
2022/01/30 02:35:25;;;;;;;2.55;0.52;;;;;;;7.14;100.00;101487.00;5052643;28;20393;-52
2022/01/30 02:38:29;;;;;;;0.22;0.22;;;;;;;7.24;100.00;101477.75;5052071;28;20385;-52
2022/01/30 02:41:33;;;;;;;0.10;0.05;;;;;;;7.35;100.00;101489.50;5052354;28;20055;-52
2022/01/30 02:44:44;;;;;;;2.10;0.65;;;;;;;7.46;100.00;101490.19;5052351;28;20048;-52
2022/01/30 02:51:12;;;;;;;10.65;0.95;;;;;;;7.72;100.00;101487.88;5053046;28;20381;-53
2022/01/30 02:54:16;;;;;;;0.40;0.30;;;;;;;7.77;100.00;101488.22;5051954;28;20051;-53
2022/01/30 02:57:20;;;;;;;2.15;0.30;;;;;;;7.79;100.00;101488.56;5052229;28;20067;-53
2022/01/30 03:00:23;;;;;;;0.60;0.57;;;;;;;7.80;100.00;101494.88;5052731;28;20048;-53
2022/01/30 03:03:27;;;;;;;0.17;0.17;;;;;;;7.66;100.00;101487.56;5051952;28;20576;-52
2022/01/30 03:06:30;;;;;;;4.15;0.63;;;;;;;7.77;100.00;101479.09;5052235;28;20052;-52
2022/01/30 03:09:35;;;;;;;0.30;0.30;;;;;;;7.79;100.00;101479.47;5052048;28;20516;-53
2022/01/30 03:12:39;;;;;;;0.47;0.47;;;;;;;7.74;100.00;101488.22;5052088;28;20188;-53
2022/01/30 03:15:42;;;;;;;13.10;1.05;;;;;;;7.67;100.00;101488.34;5051753;28;20425;-53
2022/01/30 03:18:45;;;;;;;2.33;0.75;;;;;;;7.63;100.00;101472.53;5050385;28;20124;-52
2022/01/30 03:21:48;;;;;;;0.10;0.10;;;;;;;7.68;100.00;101473.28;5051209;28;20048;-53
2022/01/30 03:24:52;;;;;;;0.10;0.10;;;;;;;7.74;100.00;101472.38;5040920;28;20053;-53
2022/01/30 03:27:55;;;;;;;0.10;0.10;;;;;;;7.83;100.00;101469.09;5030273;28;20060;-53
2022/01/30 03:31:06;;;;;;;0.10;0.10;;;;;;;7.78;100.00;101455.69;5030304;28;20056;-52
2022/01/30 03:34:11;;;;;;;15.10;0.82;;;;;;;7.75;100.00;101453.78;5031073;28;20045;-52
2022/01/30 03:37:14;;;;;;;0.30;0.30;;;;;;;7.60;100.00;101459.50;5030444;28;20072;-53
2022/01/30 03:40:18;;;;;;;0.10;0.10;;;;;;;7.52;100.00;101465.53;5030657;28;20433;-52
2022/01/30 03:43:22;;;;;;;1.13;0.32;;;;;;;7.29;100.00;101473.75;5030593;28;20117;-53
2022/01/30 03:46:26;;;;;;;0.10;0.10;;;;;;;7.17;100.00;101488.91;5030650;28;20502;-53
2022/01/30 03:49:29;;;;;;;11.18;0.40;;;;;;;7.13;100.00;101468.00;5030164;28;20052;-52
2022/01/30 03:52:32;;;;;;;1.10;0.52;;;;;;;7.08;100.00;101474.75;5029649;28;20121;-52
2022/01/30 03:55:36;;;;;;;16.95;2.47;;;;;;;7.03;100.00;101472.47;5031174;28;20064;-52
2022/01/30 03:58:40;;;;;;;0.40;0.30;;;;;;;6.87;100.00;101481.31;5030645;28;20049;-52
2022/01/30 04:01:43;;;;;;;0.50;0.50;;;;;;;6.67;100.00;101490.63;5030647;28;20060;-52
2022/01/30 04:04:46;;;;;;;0.43;0.30;;;;;;;6.48;100.00;101485.63;5019702;28;20048;-52
2022/01/30 04:07:50;;;;;;;0.13;0.13;;;;;;;6.29;100.00;101486.19;5030998;28;20052;-53
2022/01/30 04:10:54;;;;;;;0.10;0.10;;;;;;;6.09;100.00;101489.47;5030749;28;20517;-52
2022/01/30 04:13:58;;;;;;;1.63;0.28;;;;;;;5.91;100.00;101486.03;5030442;28;20052;-52
2022/01/30 04:17:01;;;;;;;1.20;1.00;;;;;;;5.72;100.00;101483.75;5030888;28;20072;-52
2022/01/30 04:20:05;;;;;;;0.70;0.30;;;;;;;5.55;100.00;101481.84;5030429;28;20056;-52
2022/01/30 04:23:08;;;;;;;0.45;0.45;;;;;;;5.42;100.00;101490.97;5030844;28;20232;-53
2022/01/30 04:26:12;;;;;;;0.40;0.40;;;;;;;5.30;100.00;101500.50;5030574;28;20044;-53
2022/01/30 04:29:15;;;;;;;2.30;0.73;;;;;;;5.24;100.00;101513.16;5030707;28;20056;-52
2022/01/30 04:32:19;;;;;;;8.00;0.77;;;;;;;5.12;100.00;101492.28;5013253;28;20098;-52
2022/01/30 04:35:29;;;;;;;0.10;0.10;;;;;;;5.00;100.00;101478.88;5030922;28;20056;-52
2022/01/30 04:38:44;;;;;;;0.10;0.10;;;;;;;4.92;100.00;101473.78;5030343;28;20052;-52
2022/01/30 04:52:23;;;;;;;;;;;;;;;4.63;100.00;101502.59;5050580;28;20055;-53
2022/01/30 05:02:11;;;;;;;0.80;0.52;;;;;;;4.22;100.00;101515.97;5049841;28;20099;-52
2022/01/30 05:08:18;;;;;;;0.10;0.10;;;;;;;4.05;100.00;101520.25;5049723;28;20508;-52
2022/01/30 05:11:22;;;;;;;3.20;0.50;;;;;;;3.99;100.00;101523.78;5050396;28;20056;-52
2022/01/30 05:14:32;;;;;;;0.10;0.10;;;;;;;3.98;100.00;101525.00;5049768;28;20070;-53
2022/01/30 05:17:36;;;;;;;0.10;0.10;;;;;;;3.82;100.00;101528.88;5050030;28;20068;-52
2022/01/30 05:20:39;;;;;;;0.40;0.40;;;;;;;3.68;100.00;101530.81;5049558;28;20378;-52
2022/01/30 05:23:43;;;;;;;0.13;0.13;;;;;;;3.65;100.00;101528.81;5049433;28;20067;-52
2022/01/30 05:26:47;;;;;;;0.52;0.52;;;;;;;3.62;100.00;101524.06;5029695;28;20052;-52
2022/01/30 05:29:50;;;;;;;0.50;0.50;;;;;;;3.60;100.00;101520.91;5029939;28;20289;-53
2022/01/30 05:32:54;;;;;;;0.10;0.10;;;;;;;3.58;100.00;101534.28;5029716;28;20053;-52
2022/01/30 05:35:58;;;;;;;0.10;0.10;;;;;;;3.57;100.00;101529.97;5029466;28;20406;-52
2022/01/30 05:39:02;;;;;;;1.70;0.60;;;;;;;3.50;100.00;101533.47;5028966;28;20057;-53
2022/01/30 05:42:06;;;;;;;0.55;0.55;;;;;;;3.51;100.00;101518.53;5031754;28;20072;-53
2022/01/30 05:45:17;;;;;;;0.43;0.43;;;;;;;3.46;100.00;101512.59;5033565;28;20048;-53
2022/01/30 05:48:21;;;;;;;0.20;0.20;;;;;;;3.46;100.00;101515.34;5033824;28;20180;-52
2022/01/30 05:51:24;;;;;;;0.40;0.38;;;;;;;3.48;100.00;101529.53;5061742;28;20287;-53
2022/01/30 05:54:27;;;;;;;1.20;0.35;;;;;;;3.49;100.00;101525.59;5096553;28;20051;-53
2022/01/30 05:57:31;;;;;;;0.10;0.10;;;;;;;3.42;100.00;101515.31;5096414;28;20054;-53
2022/01/30 06:00:34;;;;;;;0.38;0.38;;;;;;;3.34;100.00;101512.94;5096607;28;20071;-52
2022/01/30 06:03:37;;;;;;;0.20;0.20;;;;;;;3.28;100.00;101514.47;5096295;28;20051;-53
2022/01/30 06:06:49;;;;;;;0.25;0.25;;;;;;;3.19;100.00;101516.78;5096348;28;20047;-52
2022/01/30 06:09:52;;;;;;;0.40;0.40;;;;;;;3.15;100.00;101521.47;5096525;28;20099;-52
2022/01/30 06:12:56;;;;;;;0.10;0.10;;;;;;;3.19;100.00;101517.56;5096254;28;20055;-53
2022/01/30 06:16:00;;;;;;;0.20;0.20;;;;;;;3.17;100.00;101535.66;5095828;28;20059;-52
2022/01/30 06:19:03;;;;;;;14.10;1.17;;;;;;;3.21;100.00;101525.44;5096177;28;20055;-52
2022/01/30 06:22:07;;;;;;;0.43;0.43;;;;;;;3.24;100.00;101530.19;5095820;28;20484;-53
2022/01/30 06:25:10;;;;;;;0.15;0.15;;;;;;;3.27;100.00;101534.94;5108101;28;20038;-52
2022/01/30 06:28:14;;;;;;;2.90;0.63;;;;;;;3.31;100.00;101538.50;5116380;28;20054;-52
2022/01/30 06:31:18;;;;;;;0.22;0.22;;;;;;;3.35;100.00;101542.06;5109708;28;20235;-53
2022/01/30 06:34:22;;;;;;;0.30;0.30;;;;;;;3.35;100.00;101534.59;5095655;28;20051;-52
2022/01/30 06:37:26;;;;;;;0.10;0.10;;;;;;;3.30;100.00;101534.16;5094318;28;20060;-52
2022/01/30 06:40:30;;;;;;;0.30;0.30;;;;;;;3.25;100.00;101537.28;5095481;28;20114;-53
2022/01/30 06:43:33;;;;;;;0.75;0.63;;;;;;;3.21;100.00;101533.69;5095404;28;20118;-53
2022/01/30 06:46:37;;;;;;;0.15;0.15;;;;;;;3.10;100.00;101541.91;5095611;28;20063;-52
2022/01/30 06:49:40;;;;;;;0.40;0.40;;;;;;;3.01;100.00;101546.97;5095058;28;20047;-53
2022/01/30 06:52:44;;;;;;;3.70;0.35;;;;;;;2.87;100.00;101539.41;5093692;28;20063;-52
2022/01/30 06:55:47;;;;;;;1.15;0.40;;;;;;;2.74;100.00;101538.13;5094985;28;20050;-53
2022/01/30 06:58:55;;;;;;;0.30;0.30;;;;;;;2.72;100.00;101545.97;5094997;28;20051;-53
2022/01/30 07:01:59;;;;;;;0.32;0.32;;;;;;;2.67;100.00;101535.31;5094717;28;20050;-53
2022/01/30 07:05:03;;;;;;;0.32;0.32;;;;;;;2.65;100.00;101526.66;5094734;28;20047;-53
2022/01/30 07:08:07;;;;;;;0.32;0.32;;;;;;;2.65;100.00;101534.09;5094883;28;20043;-54
2022/01/30 07:11:11;;;;;;;0.50;0.50;;;;;;;2.73;100.00;101527.50;5094791;28;20055;-53
2022/01/30 07:14:14;;;;;;;7.93;1.20;;;;;;;2.77;100.00;101534.59;5094394;28;20054;-53
2022/01/30 07:17:17;;;;;;;3.03;0.68;;;;;;;2.77;100.00;101531.84;5094584;28;20051;-53
2022/01/30 07:20:21;;;;;;;0.20;0.20;;;;;;;2.72;100.00;101521.22;5094370;28;20098;-53
2022/01/30 07:23:24;;;;;;;0.22;0.22;;;;;;;2.67;100.00;101527.06;5094630;28;20051;-53
2022/01/30 07:26:28;;;;;;;0.10;0.10;;;;;;;2.61;100.00;101517.59;5074210;28;20047;-53
2022/01/30 07:29:31;;;;;;;3.35;0.73;;;;;;;2.58;100.00;101526.59;5074746;28;20067;-53
2022/01/30 07:32:34;;;;;;;0.32;0.32;;;;;;;2.54;100.00;101528.50;5089881;28;20042;-53
2022/01/30 07:35:42;;;;;;;0.30;0.30;;;;;;;2.48;100.00;101524.53;5092400;28;20404;-53
2022/01/30 07:38:46;;;;;;;0.85;0.63;;;;;;;2.44;100.00;101515.47;5092720;28;20047;-52
2022/01/30 07:41:49;;;;;;;0.20;0.20;;;;;;;2.41;100.00;101520.94;5091300;28;20055;-53
2022/01/30 07:44:53;;;;;;;0.35;0.35;;;;;;;2.39;100.00;101529.56;5091314;28;20042;-52
2022/01/30 07:47:57;;;;;;;0.10;0.10;;;;;;;2.39;100.00;101524.06;5094388;28;20047;-52
2022/01/30 07:51:00;;;;;;;1.23;0.68;;;;;;;2.32;100.00;101521.25;5093751;28;20408;-53
2022/01/30 07:54:04;;;;;;;1.88;1.20;;;;;;;2.23;100.00;101523.53;5094188;28;20702;-53
2022/01/30 07:57:07;;;;;;;0.32;0.32;;;;;;;2.21;100.00;101517.59;5093905;28;20067;-52
2022/01/30 08:00:12;;;;;;;7.28;0.75;;;;;;;2.22;100.00;101531.00;5094234;28;20368;-53
2022/01/30 08:03:15;;;;;;;1.73;0.82;;;;;;;2.25;100.00;101534.94;5073641;28;20047;-52
2022/01/30 08:06:19;;;;;;;0.10;0.10;;;;;;;2.28;100.00;101539.66;5073521;28;20400;-52
2022/01/30 08:09:22;;;;;;;1.48;0.70;;;;;;;2.28;100.00;101531.44;5073341;28;20055;-52
2022/01/30 08:12:25;;;;;;;2.15;1.23;;;;;;;2.33;100.00;101536.59;5089338;28;20055;-53
2022/01/30 08:15:28;;;;;;;0.70;0.70;;;;;;;2.36;100.00;101530.31;5093614;28;20059;-52
2022/01/30 08:18:33;;;;;;;3.92;0.93;;;;;;;2.35;100.00;101526.00;5093862;28;20483;-53
2022/01/30 08:21:37;;;;;;;1.73;1.10;;;;;;;2.34;100.00;101523.63;5093674;28;20055;-53
2022/01/30 08:24:41;;;;;;;2.95;0.70;;;;;;;2.33;100.00;101533.84;5101687;28;20486;-53
2022/01/30 08:27:45;;;;;;;0.20;0.10;;;;;;;2.31;100.00;101533.44;5113870;28;20047;-53
2022/01/30 08:30:51;;;;;;;2.72;0.93;;;;;;;2.44;100.00;101526.47;5111546;28;20494;-53
2022/01/30 08:33:55;;;;;;;0.32;0.32;;;;;;;2.47;100.00;101531.19;5104066;28;20107;-52
2022/01/30 08:36:58;;;;;;;4.15;0.80;;;;;;;2.50;100.00;101524.94;5093099;28;20059;-52
2022/01/30 08:40:04;;;;;;;1.33;1.23;;;;;;;2.52;100.00;101525.34;5093279;28;20051;-53
2022/01/30 08:43:08;;;;;;;4.68;1.33;;;;;;;2.51;100.00;101523.78;5093351;28;20054;-53
2022/01/30 08:46:14;;;;;;;3.10;1.42;;;;;;;2.46;100.00;101532.38;5093497;28;20481;-52
2022/01/30 08:49:18;;;;;;;1.13;1.02;;;;;;;2.40;100.00;101525.66;5093115;28;20055;-53
2022/01/30 08:52:22;;;;;;;16.65;2.17;;;;;;;2.40;100.00;101524.88;5093228;28;20642;-52
2022/01/30 08:55:29;;;;;;;2.15;1.33;;;;;;;2.50;100.00;101524.94;5092343;28;20459;-53
2022/01/30 08:58:33;;;;;;;2.80;0.85;;;;;;;2.59;100.00;101533.69;5092066;28;20043;-53
2022/01/30 09:01:36;;;;;;;1.10;1.10;;;;;;;2.69;100.00;101532.97;5089853;28;20364;-52
2022/01/30 09:04:39;;;;;;;3.72;1.02;;;;;;;2.76;100.00;101538.53;5091859;28;20050;-52
2022/01/30 09:07:43;;;;;;;7.13;1.00;;;;;;;2.80;100.00;101531.09;5090181;28;20035;-52
2022/01/30 09:10:46;;;;;;;4.35;1.27;;;;;;;2.82;100.00;101530.69;5091154;28;20055;-52
2022/01/30 09:13:50;;;;;;;3.60;1.25;;;;;;;2.82;100.00;101520.50;5089074;28;20051;-52
2022/01/30 09:16:53;;;;;;;1.77;1.65;;;;;;;2.86;100.00;101526.00;5099100;28;20464;-53
2022/01/30 09:19:57;;;;;;;6.07;1.85;;;;;;;2.96;100.00;101528.06;5089497;28;20042;-53
2022/01/30 09:23:00;;;;;;;3.20;1.65;;;;;;;3.01;100.00;101536.72;5088486;28;20059;-52
2022/01/30 09:26:03;;;;;;;2.20;1.83;;;;;;;3.04;100.00;101535.97;5092578;28;20055;-52
2022/01/30 09:29:07;;;;;;;0.68;0.50;;;;;;;3.11;100.00;101531.69;5089722;28;20055;-52
2022/01/30 09:32:10;;;;;;;0.77;0.75;;;;;;;3.18;100.00;101534.47;5089818;28;20063;-52
2022/01/30 09:35:14;;;;;;;2.17;0.73;;;;;;;3.29;100.00;101525.09;5089951;28;20535;-52
2022/01/30 09:38:17;;;;;;;1.88;1.20;;;;;;;3.34;100.00;101512.94;5090601;28;20067;-52
2022/01/30 09:41:23;;;;;;;1.00;0.90;;;;;;;3.33;100.00;101522.38;5091152;28;20043;-52
2022/01/30 09:44:26;;;;;;;1.50;1.40;;;;;;;3.40;100.00;101514.16;5088994;28;20043;-51
2022/01/30 09:47:31;;;;;;;7.88;1.65;;;;;;;3.52;100.00;101505.53;5090433;28;20047;-51
2022/01/30 09:50:35;;;;;;;0.88;0.60;;;;;;;3.60;100.00;101499.69;5092235;28;20076;-51
2022/01/30 09:53:39;;;;;;;4.38;1.95;;;;;;;3.61;100.00;101489.44;5092192;28;20051;-52
2022/01/30 09:56:43;;;;;;;2.20;1.08;;;;;;;3.66;100.00;101491.84;5103028;28;20047;-51
2022/01/30 09:59:46;;;;;;;0.40;0.40;;;;;;;3.72;100.00;101480.06;5092476;28;20526;-52
2022/01/30 10:02:50;;;;;;;0.40;0.40;;;;;;;3.79;100.00;101482.00;5091747;28;20499;-51
2022/01/30 10:06:23;;;;;;;0.40;0.40;;;;;;;3.85;100.00;101474.97;5092182;28;20396;-53
2022/01/30 10:09:32;;;;;;;2.08;1.25;;;;;;;3.99;100.00;101461.19;5092010;28;20484;-53
2022/01/30 10:12:35;;;;;;;11.10;1.08;;;;;;;4.10;100.00;101470.28;5092389;28;20416;-51
2022/01/30 10:15:48;;;;;;;15.07;2.67;;;;;;;4.22;100.00;101472.63;5092277;28;20059;-51
2022/01/30 10:18:52;;;;;;;1.55;0.93;;;;;;;4.27;100.00;101455.72;5092499;28;20043;-51
2022/01/30 10:22:06;;;;;;;18.50;1.23;;;;;;;4.36;100.00;101447.84;5092040;28;20067;-53
2022/01/30 10:25:17;;;;;;;0.43;0.43;;;;;;;4.42;100.00;101449.00;5104029;28;20506;-52
2022/01/30 10:28:30;;;;;;;1.48;1.05;;;;;;;4.43;100.00;101447.03;5115031;28;20046;-51
2022/01/30 10:31:55;;;;;;;0.38;0.38;;;;;;;4.50;100.00;101447.81;5107367;28;20051;-52
2022/01/30 10:35:09;;;;;;;1.02;0.17;;;;;;;4.65;100.00;101434.00;5095817;28;20051;-53
2022/01/30 10:38:23;;;;;;;3.72;0.40;;;;;;;4.64;100.00;101419.44;5095307;28;20055;-51
2022/01/30 10:41:35;;;;;;;0.28;0.28;;;;;;;4.70;100.00;101411.53;5095451;28;20047;-51
2022/01/30 10:44:46;;;;;;;;;;;;;;;4.63;100.00;101424.16;5095860;28;20047;-53
2022/01/30 10:47:50;;;;;;;1.30;0.95;;;;;;;4.70;100.00;101419.81;5095315;28;20304;-52
2022/01/30 10:50:55;;;;;;;1.30;1.20;;;;;;;4.82;100.00;101419.38;5095188;28;20476;-52
2022/01/30 10:54:06;;;;;;;0.22;0.22;;;;;;;4.91;100.00;101414.25;5095147;28;20055;-52
2022/01/30 10:57:11;;;;;;;3.97;1.02;;;;;;;5.01;100.00;101410.66;5095191;28;20491;-52
2022/01/30 11:00:15;;;;;;;0.43;0.17;;;;;;;5.11;100.00;101398.81;5095033;28;20063;-53
2022/01/30 11:03:36;;;;;;;0.30;0.30;;;;;;;5.19;100.00;101394.81;5095083;28;20059;-51
2022/01/30 11:06:40;;;;;;;3.88;0.95;;;;;;;5.38;100.00;101391.56;5094892;28;20051;-53
2022/01/30 11:10:05;;;;;;;0.40;0.38;;;;;;;5.55;100.00;101396.19;5094781;28;20095;-53
2022/01/30 11:13:08;;;;;;;0.73;0.35;;;;;;;5.87;100.00;101382.97;5074909;28;20492;-52
2022/01/30 11:19:39;;;;;;;4.53;0.40;;;;;;;6.49;100.00;101363.47;5074344;28;20055;-52
2022/01/30 11:22:46;;;;;;;9.95;0.93;;;;;;;6.68;100.00;101345.47;5092503;28;20055;-52
2022/01/30 11:25:52;;;;;;;1.48;1.27;;;;;;;6.96;100.00;101345.13;5112677;28;20058;-54
2022/01/30 11:28:57;;;;;;;0.30;0.30;;;;;;;7.20;100.00;101338.50;5104452;28;20114;-53
2022/01/30 11:32:00;;;;;;;3.05;1.45;;;;;;;7.34;100.00;101337.53;5094053;28;20055;-52
2022/01/30 11:35:05;;;;;;;0.75;0.55;;;;;;;7.44;100.00;101337.38;5094502;28;20388;-53
2022/01/30 11:38:09;;;;;;;3.58;0.95;;;;;;;7.56;100.00;101322.91;5094066;28;20051;-52
2022/01/30 11:41:18;;;;;;;0.57;0.45;;;;;;;7.72;100.00;101318.72;5094596;28;20051;-53
2022/01/30 11:44:25;;;;;;;5.15;2.05;;;;;;;7.80;100.00;101309.06;5094020;28;20503;-52
2022/01/30 11:47:44;;;;;;;7.68;0.60;;;;;;;7.95;100.00;101304.88;5094204;28;20491;-52
2022/01/30 11:51:01;;;;;;;1.58;0.60;;;;;;;8.12;100.00;101292.69;5094016;28;20051;-51
2022/01/30 11:54:36;;;;;;;4.88;1.15;;;;;;;8.21;100.00;101279.81;5094005;28;20055;-53
2022/01/30 11:57:42;;;;;;;7.00;2.05;;;;;;;8.32;100.00;101274.09;5094003;28;20055;-53
2022/01/30 12:00:48;;;;;;;2.60;0.70;;;;;;;8.40;100.00;101275.53;5094064;28;20055;-52
2022/01/30 12:03:59;;;;;;;0.30;0.30;;;;;;;8.65;100.00;101264.72;5093634;28;20051;-53
2022/01/30 12:07:31;;;;;;;1.27;1.17;;;;;;;8.75;100.00;101241.47;5092913;28;20047;-53
2022/01/30 12:10:35;;;;;;;0.43;0.43;;;;;;;8.64;100.00;101252.03;5073754;28;20052;-53
2022/01/30 12:13:44;;;;;;;7.13;2.55;;;;;;;8.56;100.00;101231.19;5093816;28;20047;-53
2022/01/30 12:16:49;;;;;;;0.20;0.10;;;;;;;8.53;100.00;101234.81;5093600;28;20047;-53
2022/01/30 12:19:52;;;;;;;2.35;1.23;;;;;;;8.59;100.00;101221.22;5093352;28;20423;-53
2022/01/30 12:22:57;;;;;;;2.58;0.90;;;;;;;8.59;100.00;101222.00;5093776;28;20479;-53
2022/01/30 12:26:03;;;;;;;0.50;0.40;;;;;;;8.67;100.00;101206.75;5112601;28;20054;-53
2022/01/30 12:29:07;;;;;;;11.88;1.27;;;;;;;8.75;100.00;101215.72;5113191;28;20062;-52
2022/01/30 12:32:22;;;;;;;0.77;0.60;;;;;;;8.85;100.00;101200.81;5099362;28;20043;-52
2022/01/30 12:35:27;;;;;;;10.63;1.58;;;;;;;9.00;100.00;101186.16;5093140;28;20051;-52
2022/01/30 12:38:34;;;;;;;0.68;0.68;;;;;;;9.05;100.00;101166.19;5092703;28;20047;-52
2022/01/30 12:41:39;;;;;;;1.02;0.45;;;;;;;9.16;100.00;101165.91;5092747;28;20043;-52
2022/01/30 12:44:44;;;;;;;0.10;0.10;;;;;;;9.31;100.00;101160.81;5092986;28;20503;-52
2022/01/30 12:47:57;;;;;;;0.90;0.85;;;;;;;9.49;100.00;101153.56;5093323;28;20039;-52
2022/01/30 12:51:05;;;;;;;1.65;0.70;;;;;;;9.62;100.00;101148.88;5092906;28;20046;-53
2022/01/30 12:54:10;;;;;;;6.13;1.20;;;;;;;9.82;100.00;101134.81;5093149;28;20482;-52
2022/01/30 12:57:14;;;;;;;1.08;0.68;;;;;;;9.96;100.00;101123.31;5092731;28;20053;-52
2022/01/30 13:00:18;;;;;;;15.75;1.13;;;;;;;10.03;100.00;101120.31;5093123;28;20051;-52
2022/01/30 13:03:21;;;;;;;6.97;1.17;;;;;;;10.08;100.00;101128.13;5093129;28;20048;-52
2022/01/30 13:06:32;;;;;;;0.82;0.65;;;;;;;10.22;100.00;101124.94;5092833;28;20059;-52
2022/01/30 13:09:36;;;;;;;0.85;0.30;;;;;;;10.42;100.00;101111.63;5093019;28;20043;-53
2022/01/30 13:12:42;;;;;;;17.90;0.68;;;;;;;10.63;100.00;101094.25;5086138;28;20051;-51
2022/01/30 13:15:56;;;;;;;1.65;1.50;;;;;;;10.74;100.00;101087.59;5102666;28;20048;-52
2022/01/30 13:19:01;;;;;;;1.13;0.57;;;;;;;10.68;100.00;101078.22;5089645;28;20405;-52
2022/01/30 13:22:07;;;;;;;3.13;0.57;;;;;;;10.73;100.00;101058.16;5092157;28;20047;-52
2022/01/30 13:25:15;;;;;;;6.15;0.35;;;;;;;10.72;100.00;101051.03;5091565;28;20055;-52
2022/01/30 13:28:21;;;;;;;7.10;0.93;;;;;;;10.73;100.00;101045.00;5086299;28;20047;-52
2022/01/30 13:31:25;;;;;;;0.85;0.28;;;;;;;10.81;100.00;101028.81;5085701;28;20047;-52
2022/01/30 13:34:31;;;;;;;4.97;1.20;;;;;;;10.91;100.00;101036.06;5088210;28;20432;-52
2022/01/30 13:37:38;;;;;;;0.20;0.20;;;;;;;11.03;100.00;101015.72;5082663;28;20052;-52
2022/01/30 13:40:52;;;;;;;1.02;0.70;;;;;;;11.12;100.00;101013.03;5082908;28;20051;-52
2022/01/30 13:43:58;;;;;;;1.58;0.38;;;;;;;11.18;100.00;100994.50;5088973;28;20058;-52
2022/01/30 13:47:03;;;;;;;7.90;0.65;;;;;;;11.17;100.00;100979.00;5091656;28;20379;-51
2022/01/30 13:50:18;;;;;;;2.85;0.85;;;;;;;11.05;100.00;100974.25;5091326;28;20484;-53
2022/01/30 13:53:21;;;;;;;3.92;1.65;;;;;;;10.96;100.00;100952.66;5092080;28;20051;-53
2022/01/30 13:56:25;;;;;;;5.43;1.17;;;;;;;10.78;100.00;100954.50;5091779;28;20415;-52
2022/01/30 13:59:29;;;;;;;2.45;0.38;;;;;;;10.73;100.00;100946.69;5092038;28;20129;-52
2022/01/30 14:02:32;;;;;;;0.98;0.17;;;;;;;10.70;100.00;100942.81;5092883;28;20051;-54
2022/01/30 14:05:43;;;;;;;6.43;1.70;;;;;;;10.65;100.00;100930.22;5096173;28;20058;-53
2022/01/30 14:08:55;;;;;;;1.33;0.43;;;;;;;10.74;100.00;100935.13;5095647;28;20050;-54
2022/01/30 14:12:02;;;;;;;6.38;0.65;;;;;;;10.73;100.00;100930.00;5088629;28;20059;-54
2022/01/30 14:15:08;;;;;;;0.43;0.28;;;;;;;10.72;100.00;100934.03;5095457;28;20051;-54
2022/01/30 14:18:14;;;;;;;0.40;0.35;;;;;;;10.59;100.00;100937.59;5095856;28;20055;-53
2022/01/30 14:21:19;;;;;;;1.05;0.52;;;;;;;10.56;100.00;100932.16;5095271;28;20067;-53
2022/01/30 14:24:29;;;;;;;1.05;0.30;;;;;;;10.52;100.00;100926.72;5101478;28;20047;-52
2022/01/30 14:27:38;;;;;;;0.73;0.65;;;;;;;10.46;100.00;100916.59;5115717;28;20050;-52
2022/01/30 14:30:42;;;;;;;0.30;0.22;;;;;;;10.42;100.00;100908.34;5114711;28;20114;-53
2022/01/30 14:33:46;;;;;;;0.50;0.50;;;;;;;10.45;100.00;100913.03;5094751;28;20062;-52
2022/01/30 14:36:49;;;;;;;0.30;0.20;;;;;;;10.37;100.00;100908.91;5095462;28;20491;-52
2022/01/30 14:39:58;;;;;;;2.50;0.40;;;;;;;10.33;100.00;100905.44;5095554;28;20110;-52
2022/01/30 14:43:02;;;;;;;0.93;0.63;;;;;;;10.27;100.00;100895.34;5092410;28;20436;-52
2022/01/30 14:46:06;;;;;;;8.88;0.55;;;;;;;10.32;100.00;100878.06;5095136;28;20055;-53
2022/01/30 14:49:10;;;;;;;8.02;1.08;;;;;;;10.29;100.00;100874.19;5095226;28;20047;-52
2022/01/30 14:52:15;;;;;;;0.60;0.45;;;;;;;10.28;100.00;100871.84;5094277;28;20088;-50
2022/01/30 14:55:20;;;;;;;4.28;0.85;;;;;;;10.25;100.00;100862.38;5095079;28;20047;-53
2022/01/30 14:58:23;;;;;;;3.03;1.17;;;;;;;10.18;100.00;100845.91;5094892;28;20051;-52
2022/01/30 15:01:29;;;;;;;13.45;1.45;;;;;;;10.18;100.00;100845.91;5094231;28;20507;-52
2022/01/30 15:04:34;;;;;;;16.25;0.90;;;;;;;10.17;100.00;100827.66;5074552;28;20045;-52
2022/01/30 15:07:38;;;;;;;1.55;0.68;;;;;;;10.14;100.00;100825.78;5074910;28;20373;-51
2022/01/30 15:10:41;;;;;;;0.10;0.10;;;;;;;10.12;100.00;100819.88;5075156;28;20051;-51